createdAt,value
2023-03-28T00:02:19.468Z,71.04
2023-03-28T00:04:49.906Z,71.34
2023-03-28T00:07:17.773Z,70.50
2023-03-28T00:09:46.211Z,70.76
2023-03-28T00:12:13.818Z,71.23
2023-03-28T00:14:42.725Z,71.13
2023-03-28T00:17:10.340Z,71.51
2023-03-28T00:19:40.832Z,71.30
2023-03-28T00:22:09.120Z,70.93
2023-03-28T00:24:41.004Z,70.84
2023-03-28T00:27:08.583Z,71.66
2023-03-28T00:29:36.414Z,71.08
2023-03-28T00:32:06.161Z,71.23
2023-03-28T00:34:34.141Z,71.09
2023-03-28T00:37:02.634Z,71.90
2023-03-28T00:39:31.603Z,71.18
2023-03-28T00:41:59.148Z,71.03
2023-03-28T00:44:26.729Z,71.84
2023-03-28T00:46:54.688Z,71.87
2023-03-28T00:49:22.451Z,71.04
2023-03-28T00:51:50.319Z,71.52
2023-03-28T00:54:18.917Z,71.60
2023-03-28T00:56:47.456Z,71.95
2023-03-28T00:59:15.536Z,71.71
2023-03-28T01:01:43.217Z,71.28
2023-03-28T01:04:10.855Z,71.78
2023-03-28T01:06:38.479Z,71.70
2023-03-28T01:09:06.679Z,71.43
2023-03-28T01:11:34.621Z,71.51
2023-03-28T01:14:04.383Z,71.62
2023-03-28T01:16:32.935Z,71.38
2023-03-28T01:19:02.287Z,72.18
2023-03-28T01:21:31.464Z,71.44
2023-03-28T01:24:11.949Z,71.70
2023-03-28T01:26:40.739Z,71.96
2023-03-28T01:29:08.357Z,71.88
2023-03-28T01:31:36.387Z,72.52
2023-03-28T01:34:05.234Z,71.86
2023-03-28T01:36:33.907Z,72.79
2023-03-28T01:39:02.821Z,71.97
2023-03-28T01:41:30.401Z,71.90
2023-03-28T01:43:58.452Z,72.03
2023-03-28T01:46:26.447Z,72.41
2023-03-28T01:48:54.069Z,72.41
2023-03-28T01:51:21.628Z,72.03
2023-03-28T01:53:49.156Z,72.56
2023-03-28T01:56:18.863Z,72.62
2023-03-28T01:58:47.192Z,72.80
2023-03-28T02:01:15.756Z,72.68
2023-03-28T02:03:43.386Z,72.65
2023-03-28T02:06:10.960Z,72.31
2023-03-28T02:08:38.633Z,72.20
2023-03-28T02:11:06.611Z,72.57
2023-03-28T02:13:34.229Z,72.74
2023-03-28T02:16:02.019Z,72.65
2023-03-28T02:18:30.093Z,72.92
2023-03-28T02:20:57.918Z,72.33
2023-03-28T02:23:26.547Z,72.40
2023-03-28T02:25:54.130Z,72.90
2023-03-28T02:28:21.730Z,72.57
2023-03-28T02:30:49.323Z,73.39
2023-03-28T02:33:17.895Z,73.41
2023-03-28T02:35:45.910Z,72.75
2023-03-28T02:38:13.554Z,72.49
2023-03-28T02:40:41.136Z,72.88
2023-03-28T02:43:09.223Z,72.33
2023-03-28T02:45:37.020Z,73.22
2023-03-28T02:48:05.066Z,73.32
2023-03-28T02:50:32.691Z,72.72
2023-03-28T02:53:00.303Z,72.52
2023-03-28T02:55:28.322Z,73.33
2023-03-28T02:57:55.966Z,73.42
2023-03-28T03:00:23.584Z,72.96
2023-03-28T03:02:51.689Z,73.07
2023-03-28T03:05:20.816Z,73.28
2023-03-28T03:07:49.423Z,73.44
2023-03-28T03:10:17.173Z,73.10
2023-03-28T03:12:45.185Z,73.56
2023-03-28T03:15:12.739Z,73.04
2023-03-28T03:17:40.385Z,73.27
2023-03-28T03:20:08.786Z,73.45
2023-03-28T03:22:36.561Z,73.33
2023-03-28T03:25:07.111Z,73.96
2023-03-28T03:27:35.182Z,73.27
2023-03-28T03:30:02.751Z,73.50
2023-03-28T03:32:30.537Z,74.00
2023-03-28T03:34:58.730Z,73.92
2023-03-28T03:37:26.767Z,73.81
2023-03-28T03:39:54.365Z,73.98
2023-03-28T03:42:22.025Z,73.93
2023-03-28T03:44:49.615Z,73.96
2023-03-28T03:47:19.159Z,74.07
2023-03-28T03:49:47.168Z,73.59
2023-03-28T03:52:14.737Z,73.66
2023-03-28T03:54:42.292Z,74.07
2023-03-28T03:57:10.027Z,74.53
2023-03-28T03:59:37.684Z,74.26
2023-03-28T04:02:05.709Z,74.08
2023-03-28T04:04:33.420Z,74.50
2023-03-28T04:07:02.509Z,74.49
2023-03-28T04:09:31.003Z,73.88
2023-03-28T04:11:58.592Z,74.53
2023-03-28T04:14:26.531Z,74.34
2023-03-28T04:16:54.127Z,74.35
2023-03-28T04:19:24.415Z,74.59
2023-03-28T04:21:52.737Z,74.47
2023-03-28T04:24:21.176Z,74.52
2023-03-28T04:26:51.272Z,74.30
2023-03-28T04:29:18.939Z,74.63
2023-03-28T04:31:50.171Z,74.80
2023-03-28T04:34:20.203Z,74.34
2023-03-28T04:36:47.805Z,74.94
2023-03-28T04:39:15.821Z,74.17
2023-03-28T04:41:46.407Z,73.85
2023-03-28T04:44:14.078Z,74.57
2023-03-28T04:46:41.699Z,74.34
2023-03-28T04:49:09.488Z,74.28
2023-03-28T04:51:37.450Z,74.31
2023-03-28T04:54:05.578Z,74.55
2023-03-28T04:56:33.347Z,74.59
2023-03-28T04:59:01.069Z,74.35
2023-03-28T05:01:28.869Z,74.52
2023-03-28T05:03:56.956Z,74.20
2023-03-28T05:06:27.614Z,74.59
2023-03-28T05:08:55.225Z,74.15
2023-03-28T05:11:22.834Z,74.29
2023-03-28T05:13:50.492Z,74.40
2023-03-28T05:16:18.802Z,74.03
2023-03-28T05:18:47.260Z,74.63
2023-03-28T05:21:14.858Z,74.88
2023-03-28T05:23:42.527Z,74.85
2023-03-28T05:26:10.610Z,74.65
2023-03-28T05:28:38.564Z,74.88
2023-03-28T05:31:07.675Z,74.89
2023-03-28T05:33:35.336Z,74.65
2023-03-28T05:36:03.255Z,75.04
2023-03-28T05:38:33.814Z,74.94
2023-03-28T05:41:02.288Z,74.74
2023-03-28T05:43:30.177Z,75.07
2023-03-28T05:45:57.827Z,74.50
2023-03-28T05:48:25.556Z,74.71
2023-03-28T05:50:53.457Z,75.10
2023-03-28T05:53:21.929Z,75.10
2023-03-28T05:55:49.595Z,75.31
2023-03-28T05:58:17.660Z,74.71
2023-03-28T06:00:46.765Z,74.81
2023-03-28T06:03:17.853Z,74.93
2023-03-28T06:05:46.190Z,74.51
2023-03-28T06:08:13.818Z,74.37
2023-03-28T06:10:42.341Z,74.39
2023-03-28T06:13:10.026Z,74.26
2023-03-28T06:15:38.098Z,74.74
2023-03-28T06:18:06.195Z,74.10
2023-03-28T06:20:34.019Z,74.59
2023-03-28T06:23:03.749Z,73.95
2023-03-28T06:25:31.531Z,74.11
2023-03-28T06:27:59.666Z,73.47
2023-03-28T06:30:27.703Z,73.42
2023-03-28T06:32:55.723Z,74.16
2023-03-28T06:35:23.621Z,73.51
2023-03-28T06:37:51.295Z,73.43
2023-03-28T06:40:19.221Z,72.97
2023-03-28T06:42:47.570Z,72.64
2023-03-28T06:45:16.115Z,73.31
2023-03-28T06:47:43.990Z,73.13
2023-03-28T06:50:11.724Z,72.64
2023-03-28T06:52:39.795Z,72.75
2023-03-28T06:55:08.328Z,72.35
2023-03-28T06:57:36.070Z,72.68
2023-03-28T07:00:04.090Z,72.33
2023-03-28T07:02:31.966Z,72.18
2023-03-28T07:04:59.908Z,72.00
2023-03-28T07:07:28.686Z,72.00
2023-03-28T07:09:56.737Z,71.58
2023-03-28T07:12:24.388Z,71.63
2023-03-28T07:14:52.118Z,71.92
2023-03-28T07:17:20.242Z,72.13
2023-03-28T07:19:51.602Z,71.63
2023-03-28T07:22:19.185Z,71.08
2023-03-28T07:24:46.972Z,71.93
2023-03-28T07:27:16.259Z,71.07
2023-03-28T07:29:45.741Z,71.15
2023-03-28T07:32:14.099Z,70.70
2023-03-28T07:34:42.035Z,70.70
2023-03-28T07:37:09.703Z,70.15
2023-03-28T07:39:40.155Z,70.76
2023-03-28T07:42:08.566Z,69.98
2023-03-28T07:44:36.821Z,69.88
2023-03-28T07:47:04.658Z,69.84
2023-03-28T07:49:32.358Z,69.43
2023-03-28T07:51:59.993Z,69.25
2023-03-28T07:54:28.620Z,69.13
2023-03-28T07:56:57.112Z,69.47
2023-03-28T07:59:24.773Z,69.04
2023-03-28T08:01:52.674Z,69.22
2023-03-28T08:04:20.862Z,69.36
2023-03-28T08:06:49.089Z,68.67
2023-03-28T08:09:17.366Z,68.15
2023-03-28T08:11:45.239Z,68.82
2023-03-28T08:14:13.254Z,68.74
2023-03-28T08:16:41.269Z,68.47
2023-03-28T08:19:11.772Z,68.48
2023-03-28T08:21:39.859Z,68.25
2023-03-28T08:24:08.055Z,68.39
2023-03-28T08:26:36.877Z,68.09
2023-03-28T08:29:05.179Z,68.05
2023-03-28T08:31:33.077Z,68.08
2023-03-28T08:34:01.362Z,68.19
2023-03-28T08:36:29.441Z,67.96
2023-03-28T08:39:00.914Z,67.58
2023-03-28T08:41:28.809Z,67.58
2023-03-28T08:43:56.503Z,67.01
2023-03-28T08:46:25.120Z,66.89
2023-03-28T08:48:52.898Z,66.69
2023-03-28T08:51:20.855Z,66.22
2023-03-28T08:53:48.789Z,65.98
2023-03-28T08:56:16.656Z,65.31
2023-03-28T08:58:47.819Z,64.68
2023-03-28T09:01:16.781Z,63.93
2023-03-28T09:03:44.799Z,63.90
2023-03-28T09:06:12.841Z,63.14
2023-03-28T09:08:40.923Z,62.74
2023-03-28T09:11:09.448Z,62.80
2023-03-28T09:13:37.307Z,62.77
2023-03-28T09:16:07.413Z,63.22
2023-03-28T09:18:37.139Z,63.78
2023-03-28T09:21:05.367Z,64.03
2023-03-28T09:23:33.834Z,64.07
2023-03-28T09:26:02.007Z,63.78
2023-03-28T09:28:29.801Z,63.17
2023-03-28T09:30:57.880Z,63.52
2023-03-28T09:33:25.710Z,63.26
2023-03-28T09:35:53.810Z,62.77
2023-03-28T09:38:21.762Z,63.10
2023-03-28T09:40:49.874Z,63.01
2023-03-28T09:43:17.993Z,63.71
2023-03-28T09:45:45.776Z,63.60
2023-03-28T09:48:14.388Z,63.77
2023-03-28T09:50:42.782Z,63.80
2023-03-28T09:53:10.687Z,63.46
2023-03-28T09:55:38.659Z,63.73
2023-03-28T09:58:06.775Z,63.66
2023-03-28T10:00:35.150Z,63.31
2023-03-28T10:03:03.563Z,63.82
2023-03-28T10:05:31.953Z,63.49
2023-03-28T10:07:59.810Z,63.02
2023-03-28T10:10:28.941Z,62.60
2023-03-28T10:12:57.213Z,61.83
2023-03-28T10:15:25.138Z,61.71
2023-03-28T10:17:53.223Z,60.91
2023-03-28T10:20:21.760Z,61.22
2023-03-28T10:22:50.289Z,61.17
2023-03-28T10:25:18.539Z,60.99
2023-03-28T10:27:46.544Z,60.29
2023-03-28T10:30:14.624Z,59.98
2023-03-28T10:32:42.493Z,60.16
2023-03-28T10:35:11.071Z,60.48
2023-03-28T10:37:39.705Z,60.37
2023-03-28T10:40:07.997Z,60.85
2023-03-28T10:42:35.878Z,60.39
2023-03-28T10:45:04.365Z,59.79
2023-03-28T10:47:33.184Z,59.73
2023-03-28T10:50:01.142Z,58.46
2023-03-28T10:52:29.073Z,56.45
2023-03-28T10:54:57.052Z,55.61
2023-03-28T10:57:25.019Z,54.53
2023-03-28T10:59:53.373Z,54.89
2023-03-28T11:02:21.834Z,54.72
2023-03-28T11:04:49.635Z,55.31
2023-03-28T11:07:18.031Z,55.32
2023-03-28T11:09:46.133Z,55.91
2023-03-28T11:12:22.914Z,55.58
2023-03-28T11:14:56.768Z,55.01
2023-03-28T11:17:24.661Z,55.32
2023-03-28T11:19:52.717Z,55.12
2023-03-28T11:22:21.141Z,55.52
2023-03-28T11:24:48.961Z,55.13
2023-03-28T11:27:17.478Z,56.02
2023-03-28T11:29:46.540Z,54.69
2023-03-28T11:32:14.353Z,53.16
2023-03-28T11:34:43.266Z,52.18
2023-03-28T11:37:11.493Z,51.19
2023-03-28T11:39:41.258Z,50.10
2023-03-28T11:42:09.073Z,48.53
2023-03-28T11:44:37.057Z,49.32
2023-03-28T11:47:05.077Z,47.91
2023-03-28T11:49:33.068Z,48.36
2023-03-28T11:52:01.539Z,48.48
2023-03-28T11:54:29.409Z,48.74
2023-03-28T11:56:57.480Z,47.80
2023-03-28T11:59:25.729Z,48.17
2023-03-28T12:01:53.678Z,48.71
2023-03-28T12:04:22.275Z,49.03
2023-03-28T12:07:02.269Z,49.23
2023-03-28T12:09:32.170Z,47.88
2023-03-28T12:12:00.175Z,47.72
2023-03-28T12:14:28.338Z,48.75
2023-03-28T12:16:57.012Z,48.00
2023-03-28T12:19:25.273Z,47.69
2023-03-28T12:21:54.573Z,47.49
2023-03-28T12:24:23.420Z,46.90
2023-03-28T12:26:53.076Z,47.28
2023-03-28T12:29:23.033Z,47.38
2023-03-28T12:31:51.288Z,46.71
2023-03-28T12:34:19.401Z,47.55
2023-03-28T12:36:49.397Z,46.73
2023-03-28T12:39:18.340Z,47.71
2023-03-28T12:41:46.260Z,47.33
2023-03-28T12:44:14.220Z,47.15
2023-03-28T12:46:46.671Z,47.79
2023-03-28T12:49:14.610Z,47.40
2023-03-28T12:51:42.827Z,46.25
2023-03-28T12:54:11.188Z,46.81
2023-03-28T12:56:39.169Z,47.88
2023-03-28T12:59:07.395Z,48.31
2023-03-28T13:01:35.330Z,48.73
2023-03-28T13:04:03.804Z,48.19
2023-03-28T13:06:33.056Z,48.32
2023-03-28T13:09:00.961Z,48.01
2023-03-28T13:11:29.352Z,48.40
2023-03-28T13:13:59.056Z,48.81
2023-03-28T13:16:28.070Z,48.54
2023-03-28T13:18:56.037Z,48.32
2023-03-28T13:21:23.877Z,48.29
2023-03-28T13:23:52.590Z,48.33
2023-03-28T13:26:22.784Z,48.72
2023-03-28T13:28:52.548Z,48.07
2023-03-28T13:31:20.744Z,48.13
2023-03-28T13:33:48.627Z,48.41
2023-03-28T13:36:16.607Z,48.02
2023-03-28T13:38:44.740Z,47.28
2023-03-28T13:41:13.508Z,47.41
2023-03-28T13:43:43.571Z,47.03
2023-03-28T13:46:11.936Z,46.53
2023-03-28T13:48:40.056Z,46.52
2023-03-28T13:51:08.345Z,46.25
2023-03-28T13:53:46.963Z,45.32
2023-03-28T13:56:16.683Z,44.50
2023-03-28T13:58:44.593Z,45.31
2023-03-28T14:01:12.679Z,44.59
2023-03-28T14:03:42.753Z,44.79
2023-03-28T14:06:11.453Z,44.87
2023-03-28T14:08:39.310Z,44.86
2023-03-28T14:11:07.264Z,44.61
2023-03-28T14:13:35.136Z,44.90
2023-03-28T14:16:03.719Z,45.76
2023-03-28T14:18:32.182Z,45.40
2023-03-28T14:21:00.664Z,45.74
2023-03-28T14:23:29.161Z,46.41
2023-03-28T14:25:57.167Z,46.41
2023-03-28T14:28:25.290Z,46.22
2023-03-28T14:30:53.280Z,46.28
2023-03-28T14:33:21.423Z,45.88
2023-03-28T14:35:49.612Z,46.46
2023-03-28T14:38:17.700Z,46.57
2023-03-28T14:40:45.972Z,46.55
2023-03-28T14:43:14.284Z,46.66
2023-03-28T14:45:42.754Z,46.38
2023-03-28T14:48:11.446Z,46.18
2023-03-28T14:50:39.362Z,46.16
2023-03-28T14:53:07.613Z,45.41
2023-03-28T14:55:37.310Z,44.86
2023-03-28T14:58:05.071Z,44.48
2023-03-28T15:00:33.623Z,44.22
2023-03-28T15:03:01.896Z,44.48
2023-03-28T15:05:30.610Z,44.12
2023-03-28T15:07:58.610Z,43.74
2023-03-28T15:10:26.608Z,43.72
2023-03-28T15:12:54.871Z,43.14
2023-03-28T15:15:23.007Z,42.30
2023-03-28T15:17:51.675Z,42.37
2023-03-28T15:20:19.673Z,42.11
2023-03-28T15:22:47.586Z,42.97
2023-03-28T15:25:15.810Z,42.50
2023-03-28T15:27:44.123Z,43.20
2023-03-28T15:30:12.608Z,44.20
2023-03-28T15:32:40.971Z,44.39
2023-03-28T15:35:11.442Z,43.57
2023-03-28T15:37:40.543Z,43.07
2023-03-28T15:40:09.687Z,41.26
2023-03-28T15:42:37.673Z,40.13
2023-03-28T15:45:05.579Z,38.61
2023-03-28T15:47:33.822Z,38.54
2023-03-28T15:50:03.726Z,38.20
2023-03-28T15:52:31.699Z,39.07
2023-03-28T15:55:00.120Z,38.76
2023-03-28T15:57:28.475Z,38.98
2023-03-28T15:59:56.519Z,39.92
2023-03-28T16:02:24.531Z,40.22
2023-03-28T16:04:52.364Z,40.89
2023-03-28T16:07:20.623Z,41.86
2023-03-28T16:09:51.551Z,43.12
2023-03-28T16:12:19.476Z,44.46
2023-03-28T16:14:47.475Z,44.96
2023-03-28T16:17:15.517Z,45.69
2023-03-28T16:19:46.056Z,46.50
2023-03-28T16:22:14.221Z,46.39
2023-03-28T16:24:42.248Z,47.15
2023-03-28T16:27:10.161Z,47.12
2023-03-28T16:29:38.132Z,47.70
2023-03-28T16:32:07.387Z,47.80
2023-03-28T16:34:35.366Z,48.04
2023-03-28T16:37:03.210Z,48.37
2023-03-28T16:39:31.236Z,48.61
2023-03-28T16:41:59.081Z,48.27
2023-03-28T16:44:27.463Z,48.27
2023-03-28T16:46:55.509Z,48.67
2023-03-28T16:49:23.319Z,48.78
2023-03-28T16:51:51.933Z,48.78
2023-03-28T16:54:20.272Z,48.70
2023-03-28T16:56:49.108Z,48.89
2023-03-28T16:59:17.061Z,49.42
2023-03-28T17:01:46.609Z,49.18
2023-03-28T17:04:14.513Z,49.56
2023-03-28T17:06:42.370Z,49.75
2023-03-28T17:09:10.795Z,49.69
2023-03-28T17:11:40.576Z,50.02
2023-03-28T17:14:08.636Z,50.01
2023-03-28T17:16:40.669Z,49.81
2023-03-28T17:19:08.669Z,50.26
2023-03-28T17:21:37.723Z,50.10
2023-03-28T17:24:11.559Z,50.04
2023-03-28T17:26:39.469Z,49.79
2023-03-28T17:29:07.892Z,50.11
2023-03-28T17:31:36.105Z,49.95
2023-03-28T17:34:04.923Z,49.80
2023-03-28T17:36:32.921Z,50.21
2023-03-28T17:39:02.193Z,50.26
2023-03-28T17:41:30.025Z,49.91
2023-03-28T17:43:58.223Z,50.48
2023-03-28T17:46:27.403Z,50.19
2023-03-28T17:48:55.395Z,50.52
2023-03-28T17:51:23.448Z,50.44
2023-03-28T17:53:51.648Z,50.53
2023-03-28T17:56:19.800Z,50.70
2023-03-28T17:58:48.210Z,50.54
2023-03-28T18:01:16.379Z,50.72
2023-03-28T18:03:44.575Z,50.78
2023-03-28T18:06:13.072Z,50.83
2023-03-28T18:08:41.130Z,50.61
2023-03-28T18:11:09.532Z,51.15
2023-03-28T18:13:37.468Z,51.17
2023-03-28T18:16:06.451Z,51.73
2023-03-28T18:18:34.423Z,51.50
2023-03-28T18:21:02.335Z,51.48
2023-03-28T18:23:30.797Z,51.73
2023-03-28T18:25:58.827Z,51.82
2023-03-28T18:28:27.029Z,51.69
2023-03-28T18:30:55.128Z,51.73
2023-03-28T18:33:23.140Z,51.91
2023-03-28T18:35:51.862Z,52.04
2023-03-28T18:38:19.862Z,51.87
2023-03-28T18:40:47.881Z,51.97
2023-03-28T18:43:16.042Z,52.29
2023-03-28T18:45:44.138Z,52.19
2023-03-28T18:48:13.377Z,52.43
2023-03-28T18:50:42.416Z,52.46
2023-03-28T18:53:10.538Z,52.36
2023-03-28T18:55:38.418Z,52.52
2023-03-28T18:58:08.398Z,52.42
2023-03-28T19:00:36.784Z,52.61
2023-03-28T19:03:04.820Z,52.36
2023-03-28T19:05:34.409Z,52.78
2023-03-28T19:08:02.321Z,52.23
2023-03-28T19:10:30.217Z,52.87
2023-03-28T19:12:58.395Z,52.99
2023-03-28T19:15:26.524Z,52.73
2023-03-28T19:17:54.472Z,52.62
2023-03-28T19:20:22.380Z,52.61
2023-03-28T19:22:50.362Z,52.80
2023-03-28T19:25:18.484Z,52.58
2023-03-28T19:27:49.786Z,52.57
2023-03-28T19:30:18.023Z,52.76
2023-03-28T19:32:46.116Z,52.60
2023-03-28T19:35:14.013Z,53.12
2023-03-28T19:37:42.335Z,52.67
2023-03-28T19:40:10.584Z,52.61
2023-03-28T19:42:38.572Z,52.77
2023-03-28T19:45:06.451Z,52.25
2023-03-28T19:47:34.326Z,52.71
2023-03-28T19:50:04.502Z,52.54
2023-03-28T19:52:32.377Z,52.43
2023-03-28T19:55:00.538Z,52.43
2023-03-28T19:57:28.765Z,52.16
2023-03-28T19:59:56.921Z,52.09
2023-03-28T20:02:24.775Z,52.02
2023-03-28T20:04:52.994Z,52.10
2023-03-28T20:07:21.655Z,52.12
2023-03-28T20:09:50.182Z,52.29
2023-03-28T20:12:18.102Z,52.73
2023-03-28T20:14:46.400Z,53.21
2023-03-28T20:17:14.193Z,53.41
2023-03-28T20:19:42.700Z,54.17
2023-03-28T20:22:10.565Z,55.49
2023-03-28T20:24:38.858Z,56.15
2023-03-28T20:27:07.565Z,56.66
2023-03-28T20:29:35.434Z,57.23
2023-03-28T20:32:05.149Z,57.58
2023-03-28T20:34:33.930Z,58.14
2023-03-28T20:37:03.683Z,58.68
2023-03-28T20:39:35.342Z,58.96
2023-03-28T20:42:05.920Z,58.91
2023-03-28T20:44:38.313Z,59.52
2023-03-28T20:47:06.417Z,59.76
2023-03-28T20:49:34.909Z,60.03
2023-03-28T20:52:02.880Z,60.09
2023-03-28T20:54:30.695Z,60.45
2023-03-28T20:56:59.352Z,60.42
2023-03-28T20:59:27.531Z,60.96
2023-03-28T21:01:56.572Z,61.62
2023-03-28T21:04:24.497Z,61.30
2023-03-28T21:06:52.481Z,61.51
2023-03-28T21:09:20.804Z,61.46
2023-03-28T21:11:49.900Z,62.08
2023-03-28T21:14:18.465Z,61.99
2023-03-28T21:16:47.610Z,62.56
2023-03-28T21:19:15.703Z,62.46
2023-03-28T21:21:43.863Z,62.61
2023-03-28T21:24:11.797Z,63.24
2023-03-28T21:26:40.105Z,63.65
2023-03-28T21:29:08.169Z,63.57
2023-03-28T21:31:37.341Z,63.88
2023-03-28T21:34:05.557Z,64.73
2023-03-28T21:36:33.623Z,64.65
2023-03-28T21:39:01.756Z,64.66
2023-03-28T21:41:29.786Z,65.19
2023-03-28T21:43:57.563Z,65.24
2023-03-28T21:46:25.495Z,66.06
2023-03-28T21:48:53.493Z,65.72
2023-03-28T21:51:21.700Z,65.64
2023-03-28T21:53:49.411Z,66.19
2023-03-28T21:56:17.132Z,66.46
2023-03-28T21:58:45.667Z,66.58
2023-03-28T22:01:13.756Z,66.19
2023-03-28T22:03:42.109Z,66.53
2023-03-28T22:06:09.878Z,66.67
2023-03-28T22:08:37.633Z,66.15
2023-03-28T22:11:05.864Z,66.65
2023-03-28T22:13:33.679Z,66.41
2023-03-28T22:16:01.731Z,66.19
2023-03-28T22:18:30.902Z,66.18
2023-03-28T22:21:02.869Z,66.77
2023-03-28T22:23:31.256Z,66.04
2023-03-28T22:25:59.011Z,66.75
2023-03-28T22:28:27.318Z,67.06
2023-03-28T22:30:55.090Z,66.81
2023-03-28T22:33:23.709Z,67.22
2023-03-28T22:35:51.945Z,66.84
2023-03-28T22:38:19.755Z,66.81
2023-03-28T22:40:47.778Z,66.78
2023-03-28T22:43:16.402Z,66.97
2023-03-28T22:45:44.208Z,67.18
2023-03-28T22:48:14.636Z,67.10
2023-03-28T22:50:44.216Z,67.28
2023-03-28T22:53:12.890Z,67.20
2023-03-28T22:55:40.605Z,67.92
2023-03-28T22:58:08.214Z,67.80
2023-03-28T23:00:36.399Z,67.57
2023-03-28T23:03:04.245Z,67.69
2023-03-28T23:05:32.854Z,67.61
2023-03-28T23:08:00.595Z,67.60
2023-03-28T23:10:28.364Z,67.48
2023-03-28T23:12:56.548Z,67.67
2023-03-28T23:15:24.174Z,67.75
2023-03-28T23:17:52.730Z,67.89
2023-03-28T23:20:20.444Z,67.35
2023-03-28T23:22:48.467Z,67.53
2023-03-28T23:25:16.191Z,67.85
2023-03-28T23:27:44.355Z,68.06
2023-03-28T23:30:12.322Z,67.54
2023-03-28T23:32:40.111Z,67.70
2023-03-28T23:35:07.797Z,67.89
2023-03-28T23:37:38.397Z,67.80
2023-03-28T23:40:10.676Z,67.82
2023-03-28T23:42:38.417Z,68.05
2023-03-28T23:45:06.118Z,68.08
2023-03-28T23:47:33.844Z,68.14
2023-03-28T23:50:01.562Z,68.27
2023-03-28T23:52:29.167Z,68.19
2023-03-28T23:54:57.222Z,68.18
2023-03-28T23:57:25.423Z,68.54
2023-03-28T23:59:53.090Z,68.39
